Time;durP1;ratioP1;P1;durP2;ratioP2;P2;SDS_P1;SDS_P2;PMS_P1;PMS_P2;Temp;Humidity;BMP_temperature;BMP_pressure;BME280_temperature;BME280_humidity;BME280_pressure;Samples;Min_cycle;Max_cycle;Signal;HPM_P1;HPM_P2
2021/01/19 00:01:49;;;;;;;10.13;4.93;;;-0.30;99.90;;;;;;5070669;28;20032;-87
2021/01/19 00:04:15;;;;;;;8.53;4.97;;;-0.30;99.90;;;;;;5071410;28;20041;-87
2021/01/19 00:06:40;;;;;;;7.97;5.03;;;-0.20;99.90;;;;;;5070151;28;20039;-87
2021/01/19 00:09:06;;;;;;;10.67;5.20;;;-0.30;99.90;;;;;;5071487;28;20032;-87
2021/01/19 00:11:32;;;;;;;11.00;5.67;;;-0.40;99.90;;;;;;5071987;28;20361;-87
2021/01/19 00:13:57;;;;;;;8.70;4.93;;;-0.40;99.90;;;;;;5072278;28;20056;-87
2021/01/19 00:16:23;;;;;;;10.77;5.30;;;-0.30;99.90;;;;;;5072662;28;20024;-87
2021/01/19 00:18:48;;;;;;;15.47;6.60;;;-0.40;99.90;;;;;;5072674;28;20028;-87
2021/01/19 00:21:14;;;;;;;14.27;5.63;;;-0.50;99.90;;;;;;5073100;28;20035;-87
2021/01/19 00:23:39;;;;;;;12.90;5.83;;;-0.60;99.90;;;;;;5072437;28;20025;-86
2021/01/19 00:26:05;;;;;;;12.83;5.93;;;-0.70;99.90;;;;;;5071756;28;20019;-87
2021/01/19 00:28:30;;;;;;;11.53;5.00;;;-0.70;99.90;;;;;;5072674;28;20052;-87
2021/01/19 00:30:56;;;;;;;11.90;5.17;;;-0.80;99.90;;;;;;5072579;28;20029;-87
2021/01/19 00:33:21;;;;;;;9.63;5.03;;;-0.80;99.90;;;;;;5072735;28;20107;-86
2021/01/19 00:35:47;;;;;;;15.90;6.33;;;-0.70;99.90;;;;;;5072553;28;20032;-87
2021/01/19 00:38:13;;;;;;;16.37;6.43;;;-0.80;99.90;;;;;;5073021;28;20024;-86
2021/01/19 00:40:39;;;;;;;16.77;7.10;;;-0.80;99.90;;;;;;5072611;28;20481;-87
2021/01/19 00:43:04;;;;;;;15.63;6.90;;;-0.80;99.90;;;;;;5072769;28;20513;-86
2021/01/19 00:45:30;;;;;;;19.53;7.03;;;-0.80;99.90;;;;;;5072408;28;20023;-86
2021/01/19 00:47:55;;;;;;;14.70;6.97;;;-0.80;99.90;;;;;;5072552;28;20401;-87
2021/01/19 00:50:21;;;;;;;13.20;5.67;;;-0.90;99.90;;;;;;5072243;28;20021;-87
2021/01/19 00:52:47;;;;;;;18.23;6.27;;;-0.90;99.90;;;;;;5071778;28;20021;-87
2021/01/19 00:55:14;;;;;;;19.07;7.47;;;-0.90;99.90;;;;;;5072450;28;20028;-87
2021/01/19 00:57:39;;;;;;;19.47;8.33;;;-1.00;99.90;;;;;;5072204;28;20041;-87
2021/01/19 01:00:07;;;;;;;15.90;8.80;;;-1.10;99.90;;;;;;5072188;28;20036;-87
2021/01/19 01:02:36;;;;;;;18.80;8.37;;;-1.20;99.90;;;;;;5072349;28;20021;-87
2021/01/19 01:05:03;;;;;;;14.70;7.57;;;-1.10;99.90;;;;;;5072113;28;20036;-87
2021/01/19 01:07:41;;;;;;;16.80;7.20;;;-1.20;99.90;;;;;;5072178;28;20012;-87
2021/01/19 01:10:11;;;;;;;16.97;7.73;;;-1.20;99.90;;;;;;5072303;28;20017;-87
2021/01/19 01:12:36;;;;;;;12.53;6.77;;;-1.20;99.90;;;;;;5071590;28;20436;-87
2021/01/19 01:15:04;;;;;;;13.10;7.37;;;-1.20;99.90;;;;;;5070390;28;20074;-87
2021/01/19 01:17:33;;;;;;;11.63;6.67;;;-1.20;99.90;;;;;;5069138;28;20025;-87
2021/01/19 01:19:59;;;;;;;11.60;6.20;;;-1.20;99.90;;;;;;5070397;28;20039;-87
2021/01/19 01:22:24;;;;;;;9.53;6.07;;;-1.10;99.90;;;;;;5068907;28;20416;-87
2021/01/19 01:24:50;;;;;;;13.20;7.20;;;-1.00;99.90;;;;;;5070751;28;20063;-87
2021/01/19 01:27:15;;;;;;;10.10;6.20;;;-1.10;99.90;;;;;;5071977;28;20056;-87
2021/01/19 01:29:41;;;;;;;9.87;6.13;;;-1.00;99.90;;;;;;5071796;28;20024;-87
2021/01/19 01:32:06;;;;;;;10.43;6.10;;;-1.00;99.90;;;;;;5070060;28;20020;-87
2021/01/19 01:34:32;;;;;;;9.93;5.93;;;-1.10;99.90;;;;;;5071930;28;20031;-87
2021/01/19 01:36:57;;;;;;;10.60;5.90;;;-1.10;99.90;;;;;;5071791;28;20466;-87
2021/01/19 01:39:23;;;;;;;11.70;6.30;;;-1.10;99.90;;;;;;5071874;28;20473;-87
2021/01/19 01:41:48;;;;;;;11.67;5.93;;;-1.10;99.90;;;;;;5072036;28;20526;-87
2021/01/19 01:44:14;;;;;;;10.20;6.20;;;-1.10;99.90;;;;;;5071595;28;20033;-87
2021/01/19 01:46:40;;;;;;;10.57;5.77;;;-1.00;99.90;;;;;;5071958;28;20346;-87
2021/01/19 01:49:05;;;;;;;10.33;5.73;;;-1.00;99.90;;;;;;5071833;28;20123;-87
2021/01/19 01:51:33;;;;;;;10.53;5.90;;;-1.00;99.90;;;;;;5071750;28;20056;-87
2021/01/19 01:54:00;;;;;;;8.53;4.90;;;-1.00;99.90;;;;;;5071935;28;20430;-87
2021/01/19 01:56:26;;;;;;;10.27;5.53;;;-1.00;99.90;;;;;;5071652;28;20121;-86
2021/01/19 01:58:53;;;;;;;7.93;4.70;;;-1.00;99.90;;;;;;5071670;28;20479;-87
2021/01/19 02:01:18;;;;;;;9.77;5.17;;;-0.90;99.90;;;;;;5070649;28;20025;-86
2021/01/19 02:03:45;;;;;;;7.73;5.20;;;-0.90;99.90;;;;;;5073399;28;20044;-87
2021/01/19 02:06:14;;;;;;;7.17;4.70;;;-0.90;99.90;;;;;;5075929;28;20033;-87
2021/01/19 02:08:54;;;;;;;7.57;5.20;;;-0.90;99.90;;;;;;5073971;28;20524;-87
2021/01/19 02:11:31;;;;;;;10.03;5.00;;;-0.90;99.90;;;;;;5075469;28;20028;-87
2021/01/19 02:14:12;;;;;;;6.07;4.53;;;-0.90;99.90;;;;;;5075477;28;20032;-87
2021/01/19 02:16:42;;;;;;;6.60;4.40;;;-0.90;99.90;;;;;;5073751;28;20397;-87
2021/01/19 02:19:37;;;;;;;8.10;5.23;;;-0.90;99.90;;;;;;5074078;28;20484;-87
2021/01/19 02:22:14;;;;;;;7.27;4.73;;;-0.90;99.90;;;;;;5073554;28;20033;-87
2021/01/19 02:24:58;;;;;;;6.47;4.40;;;-1.00;99.90;;;;;;5072169;28;20659;-87
2021/01/19 02:27:33;;;;;;;7.90;4.53;;;-1.10;99.90;;;;;;5073321;28;20024;-87
2021/01/19 02:30:01;;;;;;;8.93;5.00;;;-1.10;99.90;;;;;;5072842;28;20020;-87
2021/01/19 02:32:30;;;;;;;8.60;5.03;;;-1.20;99.90;;;;;;5074767;28;20024;-87
2021/01/19 02:35:19;;;;;;;7.13;4.87;;;-1.20;99.90;;;;;;5073172;28;20396;-87
2021/01/19 02:37:55;;;;;;;8.30;4.90;;;-1.30;99.90;;;;;;5073134;28;20513;-87
2021/01/19 02:40:21;;;;;;;8.23;4.63;;;-1.30;99.90;;;;;;5072976;28;20039;-87
2021/01/19 02:43:12;;;;;;;10.27;5.20;;;-1.30;99.90;;;;;;5074604;28;20025;-87
2021/01/19 02:45:38;;;;;;;9.67;4.47;;;-1.30;99.90;;;;;;5074804;28;20070;-87
2021/01/19 02:48:05;;;;;;;8.10;4.87;;;-1.30;99.90;;;;;;5074363;28;20856;-87
2021/01/19 02:50:32;;;;;;;8.23;5.27;;;-1.30;99.90;;;;;;5073328;28;20416;-87
2021/01/19 02:52:59;;;;;;;8.93;4.87;;;-1.30;99.90;;;;;;5074728;28;20047;-87
2021/01/19 02:55:27;;;;;;;8.10;5.13;;;-1.30;99.90;;;;;;5074464;28;20070;-87
2021/01/19 02:58:17;;;;;;;8.40;4.50;;;-1.30;99.90;;;;;;5073409;28;20051;-87
2021/01/19 03:01:01;;;;;;;7.03;4.73;;;-1.20;99.90;;;;;;5074775;28;20027;-87
2021/01/19 03:03:30;;;;;;;11.93;5.40;;;-1.20;99.90;;;;;;5074244;28;20040;-87
2021/01/19 03:05:55;;;;;;;8.47;5.00;;;-1.20;99.90;;;;;;5074451;28;20047;-87
2021/01/19 03:08:23;;;;;;;8.10;5.00;;;-1.00;99.90;;;;;;5074287;28;20021;-87
2021/01/19 03:10:50;;;;;;;7.13;4.27;;;-1.00;99.90;;;;;;5074633;28;20028;-87
2021/01/19 03:13:16;;;;;;;9.90;4.80;;;-1.00;99.90;;;;;;5074126;28;20083;-87
2021/01/19 03:15:42;;;;;;;8.43;4.73;;;-1.00;99.90;;;;;;5073717;28;20037;-87
2021/01/19 03:18:08;;;;;;;7.00;4.67;;;-1.10;99.90;;;;;;5074253;28;20024;-87
2021/01/19 03:20:34;;;;;;;6.87;4.50;;;-1.20;99.90;;;;;;5072902;28;20059;-87
2021/01/19 03:23:00;;;;;;;8.43;4.87;;;-1.10;99.90;;;;;;5074218;28;20060;-86
2021/01/19 03:25:26;;;;;;;8.53;4.93;;;-1.20;99.90;;;;;;5073820;28;20023;-86
2021/01/19 03:27:52;;;;;;;9.03;5.20;;;-1.30;99.90;;;;;;5074261;28;20063;-87
2021/01/19 03:30:18;;;;;;;8.03;4.30;;;-1.30;99.90;;;;;;5073911;28;20067;-87
2021/01/19 03:32:43;;;;;;;9.20;5.60;;;-1.40;99.90;;;;;;5074259;28;20021;-87
2021/01/19 03:35:09;;;;;;;8.07;4.90;;;-1.40;99.90;;;;;;5073877;28;20035;-87
2021/01/19 03:37:35;;;;;;;10.03;5.27;;;-1.50;99.90;;;;;;5073912;28;20078;-86
2021/01/19 03:40:03;;;;;;;8.83;4.80;;;-1.50;99.90;;;;;;5074127;28;20028;-86
2021/01/19 03:42:28;;;;;;;8.53;5.10;;;-1.50;99.90;;;;;;5073963;28;20458;-86
2021/01/19 03:44:54;;;;;;;6.77;4.93;;;-1.50;99.90;;;;;;5072525;28;20028;-87
2021/01/19 03:47:19;;;;;;;7.87;4.97;;;-1.50;99.90;;;;;;5073614;28;20075;-87
2021/01/19 03:49:45;;;;;;;9.67;4.47;;;-1.60;99.90;;;;;;5073736;28;20027;-86
2021/01/19 03:52:10;;;;;;;7.73;4.67;;;-1.60;99.90;;;;;;5072645;28;20112;-87
2021/01/19 03:54:36;;;;;;;7.97;5.57;;;-1.70;99.90;;;;;;5073610;28;20038;-87
2021/01/19 03:57:01;;;;;;;10.37;4.97;;;-1.70;99.90;;;;;;5072301;28;20212;-86
2021/01/19 03:59:27;;;;;;;10.40;5.07;;;-1.80;99.90;;;;;;5073314;28;20030;-87
2021/01/19 04:01:52;;;;;;;9.43;5.57;;;-1.80;99.90;;;;;;5073654;28;20400;-86
2021/01/19 04:04:18;;;;;;;7.47;5.10;;;-1.80;99.90;;;;;;5071994;28;20025;-87
2021/01/19 04:06:43;;;;;;;9.57;5.43;;;-1.80;99.90;;;;;;5073370;28;20469;-86
2021/01/19 04:09:09;;;;;;;9.13;5.37;;;-1.90;99.90;;;;;;5073472;28;20025;-86
2021/01/19 04:11:35;;;;;;;8.40;5.10;;;-1.90;99.90;;;;;;5073215;28;20021;-87
2021/01/19 04:14:01;;;;;;;9.83;5.57;;;-2.00;99.90;;;;;;5073422;28;20028;-86
2021/01/19 04:16:27;;;;;;;8.70;5.60;;;-2.10;99.90;;;;;;5071720;28;20074;-87
2021/01/19 04:18:52;;;;;;;9.37;5.23;;;-2.10;99.90;;;;;;5073418;28;20060;-87
2021/01/19 04:21:18;;;;;;;9.63;5.57;;;-2.10;99.90;;;;;;5073131;28;20032;-87
2021/01/19 04:23:43;;;;;;;11.47;5.70;;;-2.20;99.90;;;;;;5073389;28;20093;-86
2021/01/19 04:26:09;;;;;;;10.87;5.73;;;-2.20;99.90;;;;;;5072524;28;20104;-86
2021/01/19 04:28:35;;;;;;;12.20;5.90;;;-2.20;99.90;;;;;;5072622;28;20035;-86
2021/01/19 04:31:00;;;;;;;10.23;5.63;;;-2.20;99.90;;;;;;5073044;28;20066;-86
2021/01/19 04:33:26;;;;;;;10.10;5.73;;;-2.20;99.90;;;;;;5073071;28;20024;-86
2021/01/19 04:35:51;;;;;;;9.17;5.77;;;-2.20;99.90;;;;;;5072982;28;20054;-87
2021/01/19 04:38:17;;;;;;;7.73;4.80;;;-2.30;99.90;;;;;;5072761;28;20374;-86
2021/01/19 04:40:42;;;;;;;8.27;5.57;;;-2.30;99.90;;;;;;5072902;28;20088;-86
2021/01/19 04:43:10;;;;;;;6.80;5.13;;;-2.30;99.90;;;;;;5072634;28;20032;-86
2021/01/19 04:45:38;;;;;;;7.23;5.20;;;-2.40;99.90;;;;;;5072890;28;20381;-86
2021/01/19 04:48:04;;;;;;;9.83;5.40;;;-2.40;99.90;;;;;;5071319;28;20028;-87
2021/01/19 04:50:30;;;;;;;11.87;6.07;;;-2.40;99.90;;;;;;5073063;28;20020;-86
2021/01/19 04:52:58;;;;;;;11.83;6.53;;;-2.40;99.90;;;;;;5071291;28;20058;-86
2021/01/19 04:55:25;;;;;;;9.30;5.57;;;-2.50;99.90;;;;;;5072785;28;20040;-86
2021/01/19 04:58:02;;;;;;;8.83;5.80;;;-2.50;99.90;;;;;;5071072;28;20495;-87
2021/01/19 05:00:29;;;;;;;12.00;7.27;;;-2.60;99.90;;;;;;5072754;28;20021;-86
2021/01/19 05:03:24;;;;;;;9.93;6.30;;;-2.60;99.90;;;;;;5072453;28;20102;-86
2021/01/19 05:06:14;;;;;;;11.33;6.07;;;-2.70;99.90;;;;;;5071375;28;20025;-86
2021/01/19 05:08:42;;;;;;;10.40;5.90;;;-2.70;99.90;;;;;;5062629;28;20090;-86
2021/01/19 05:11:21;;;;;;;10.73;6.40;;;-2.70;99.90;;;;;;5072383;28;20478;-86
2021/01/19 05:13:51;;;;;;;9.30;6.23;;;-2.80;99.90;;;;;;5072652;28;20033;-87
2021/01/19 05:16:34;;;;;;;13.23;6.20;;;-2.80;99.90;;;;;;5072404;28;20029;-86
2021/01/19 05:19:03;;;;;;;14.10;6.37;;;-2.80;99.90;;;;;;5071102;28;20389;-86
2021/01/19 05:21:29;;;;;;;13.23;6.80;;;-2.90;99.90;;;;;;5072537;28;20428;-86
2021/01/19 05:23:56;;;;;;;9.57;6.20;;;-2.90;99.90;;;;;;5072316;28;20033;-86
2021/01/19 05:26:21;;;;;;;12.00;6.03;;;-2.90;99.90;;;;;;5072394;28;20063;-86
2021/01/19 05:28:50;;;;;;;10.43;6.70;;;-3.00;99.90;;;;;;5072367;28;20056;-86
2021/01/19 05:31:15;;;;;;;9.97;5.47;;;-3.00;99.90;;;;;;5070966;28;20430;-86
2021/01/19 05:33:41;;;;;;;9.80;6.00;;;-3.10;99.90;;;;;;5072192;28;20032;-86
2021/01/19 05:36:11;;;;;;;9.20;5.50;;;-3.10;99.90;;;;;;5072506;28;20033;-86
2021/01/19 05:38:54;;;;;;;11.23;5.73;;;-3.10;99.90;;;;;;5073753;28;20025;-86
2021/01/19 05:41:31;;;;;;;8.77;5.20;;;-3.10;99.90;;;;;;5076400;28;20063;-86
2021/01/19 05:44:11;;;;;;;10.47;5.97;;;-3.10;99.90;;;;;;5076186;28;20111;-86
2021/01/19 05:47:07;;;;;;;8.80;5.83;;;-3.10;99.90;;;;;;5074826;28;20119;-86
2021/01/19 05:49:38;;;;;;;9.35;6.03;;;-3.10;99.90;;;;;;5074876;28;20090;-86
2021/01/19 05:52:04;;;;;;;8.70;5.70;;;-3.10;99.90;;;;;;5075986;28;20032;-86
2021/01/19 05:54:33;;;;;;;8.90;5.50;;;-3.20;99.90;;;;;;5076112;28;20767;-86
2021/01/19 05:56:59;;;;;;;7.87;4.67;;;-3.20;99.90;;;;;;5075661;28;20044;-86
2021/01/19 05:59:45;;;;;;;6.83;4.53;;;-3.20;99.90;;;;;;5076039;28;20074;-86
2021/01/19 06:02:13;;;;;;;8.20;4.53;;;-3.20;99.90;;;;;;5075856;28;20017;-86
2021/01/19 06:04:49;;;;;;;6.83;3.90;;;-3.20;99.90;;;;;;5075820;28;20454;-86
2021/01/19 06:07:23;;;;;;;13.03;5.50;;;-3.20;99.90;;;;;;5075741;28;20020;-86
2021/01/19 06:09:49;;;;;;;7.27;4.30;;;-3.20;99.90;;;;;;5074133;28;20017;-86
2021/01/19 06:12:16;;;;;;;7.33;3.93;;;-3.30;99.90;;;;;;5075853;28;20017;-86
2021/01/19 06:14:53;;;;;;;6.97;4.10;;;-3.30;99.90;;;;;;5075597;28;20023;-86
2021/01/19 06:17:21;;;;;;;8.00;4.27;;;-3.30;99.90;;;;;;5075721;28;20031;-86
2021/01/19 06:19:48;;;;;;;9.17;4.83;;;-3.30;99.90;;;;;;5075425;28;20021;-86
2021/01/19 06:22:15;;;;;;;7.40;4.23;;;-3.30;99.90;;;;;;5075535;28;20027;-86
2021/01/19 06:24:45;;;;;;;5.73;3.60;;;-3.40;99.90;;;;;;5075242;28;20027;-86
2021/01/19 06:27:25;;;;;;;6.60;3.77;;;-3.40;99.90;;;;;;5074442;28;20462;-86
2021/01/19 06:30:02;;;;;;;6.83;4.27;;;-3.40;99.90;;;;;;5075381;28;20103;-86
2021/01/19 06:32:33;;;;;;;6.97;4.03;;;-3.40;99.90;;;;;;5075517;28;20019;-86
2021/01/19 06:35:10;;;;;;;9.97;6.10;;;-3.40;99.90;;;;;;5075281;28;20050;-86
2021/01/19 06:37:36;;;;;;;10.37;5.97;;;-3.50;99.90;;;;;;5073851;28;20036;-86
2021/01/19 06:40:06;;;;;;;8.73;5.67;;;-3.60;99.90;;;;;;5074058;28;20020;-86
2021/01/19 06:42:33;;;;;;;9.37;5.60;;;-3.60;99.90;;;;;;5074994;28;20048;-86
2021/01/19 06:45:05;;;;;;;7.37;4.73;;;-3.70;99.90;;;;;;5075272;28;20385;-86
2021/01/19 06:47:55;;;;;;;9.87;5.23;;;-3.70;99.90;;;;;;5073814;28;20541;-86
2021/01/19 06:50:23;;;;;;;11.10;5.43;;;-3.70;99.90;;;;;;5073362;28;20036;-86
2021/01/19 06:52:58;;;;;;;6.40;4.67;;;-3.70;99.90;;;;;;5074963;28;20017;-86
2021/01/19 06:55:25;;;;;;;8.80;4.68;;;-3.70;99.90;;;;;;5075184;28;20020;-86
2021/01/19 06:58:09;;;;;;;7.17;4.30;;;-3.70;99.90;;;;;;5073410;28;20044;-86
2021/01/19 07:00:39;;;;;;;7.90;5.07;;;-3.70;99.90;;;;;;5073261;28;20028;-86
2021/01/19 07:03:23;;;;;;;6.63;4.47;;;-3.70;99.90;;;;;;5074772;28;20481;-86
2021/01/19 07:05:54;;;;;;;9.63;4.87;;;-3.70;99.90;;;;;;5074615;28;20017;-86
2021/01/19 07:08:19;;;;;;;8.97;5.03;;;-3.70;99.90;;;;;;5074877;28;20027;-86
2021/01/19 07:11:04;;;;;;;8.57;4.83;;;-3.70;99.90;;;;;;5074048;28;20452;-88
2021/01/19 07:13:37;;;;;;;9.13;4.88;;;-3.80;99.90;;;;;;5074818;28;20051;-87
2021/01/19 07:16:07;;;;;;;6.77;4.23;;;-3.80;99.90;;;;;;5074717;28;20025;-78
2021/01/19 07:18:53;;;;;;;7.70;4.27;;;-3.80;99.90;;;;;;5074680;28;20021;-89
2021/01/19 07:21:19;;;;;;;6.80;4.17;;;-3.90;99.90;;;;;;5079163;28;20023;-89
2021/01/19 07:23:45;;;;;;;7.83;4.50;;;-3.90;99.90;;;;;;5094209;28;20399;-89
2021/01/19 07:26:42;;;;;;;5.60;3.60;;;-3.90;99.90;;;;;;5095316;28;20012;-89
2021/01/19 07:29:08;;;;;;;6.67;4.37;;;-4.00;99.90;;;;;;5090171;28;20115;-89
2021/01/19 07:31:34;;;;;;;7.87;5.10;;;-4.00;99.90;;;;;;5093979;28;20212;-88
2021/01/19 07:34:03;;;;;;;6.83;4.40;;;-3.90;99.90;;;;;;5095595;28;20047;-89
2021/01/19 07:36:28;;;;;;;7.27;4.20;;;-3.90;99.90;;;;;;5095346;28;20046;-89
2021/01/19 07:38:54;;;;;;;6.70;3.97;;;-3.90;99.90;;;;;;5095271;28;20024;-89
2021/01/19 07:41:34;;;;;;;6.73;4.47;;;-3.80;99.90;;;;;;5095382;28;20024;-89
2021/01/19 07:44:01;;;;;;;7.37;4.17;;;-3.80;99.90;;;;;;5093751;28;20016;-89
2021/01/19 07:46:28;;;;;;;5.80;4.13;;;-3.80;99.90;;;;;;5095129;28;20047;-89
2021/01/19 07:49:01;;;;;;;9.33;4.27;;;-3.70;99.90;;;;;;5095269;28;20077;-89
2021/01/19 07:51:38;;;;;;;6.10;4.10;;;-3.70;99.90;;;;;;5093582;28;20045;-89
2021/01/19 07:54:04;;;;;;;6.97;3.90;;;-3.60;99.90;;;;;;5093686;28;20024;-89
2021/01/19 07:56:30;;;;;;;6.80;4.50;;;-3.60;99.90;;;;;;5093437;28;20076;-89
2021/01/19 07:58:57;;;;;;;10.93;5.23;;;-3.50;99.90;;;;;;5093730;28;20469;-89
2021/01/19 08:01:31;;;;;;;9.47;4.83;;;-3.30;99.90;;;;;;5093333;28;20035;-89
2021/01/19 08:04:11;;;;;;;6.90;3.78;;;-3.10;99.90;;;;;;5093263;28;20480;-89
2021/01/19 08:06:38;;;;;;;6.23;4.07;;;-3.00;99.90;;;;;;5094674;28;20059;-89
2021/01/19 08:09:14;;;;;;;5.33;3.30;;;-2.90;99.90;;;;;;5093439;28;20073;-89
2021/01/19 08:11:45;;;;;;;5.03;3.20;;;-2.80;99.90;;;;;;5093704;28;20064;-89
2021/01/19 08:14:11;;;;;;;3.60;2.73;;;-2.70;99.90;;;;;;5094661;28;20104;-89
2021/01/19 08:16:40;;;;;;;5.00;3.10;;;-2.60;99.90;;;;;;5093095;28;20028;-88
2021/01/19 08:19:10;;;;;;;3.87;2.67;;;-2.50;99.90;;;;;;5075998;28;20032;-88
2021/01/19 08:21:37;;;;;;;6.23;3.50;;;-2.40;99.90;;;;;;5073931;28;20043;-88
2021/01/19 08:24:08;;;;;;;4.00;2.80;;;-2.20;99.90;;;;;;5074039;28;20381;-88
2021/01/19 08:26:34;;;;;;;3.80;2.50;;;-2.10;99.90;;;;;;5073014;28;20752;-88
2021/01/19 08:29:01;;;;;;;3.47;2.40;;;-1.90;99.90;;;;;;5072628;28;20025;-88
2021/01/19 08:31:29;;;;;;;3.53;2.70;;;-1.80;99.90;;;;;;5072819;28;20048;-88
2021/01/19 08:34:06;;;;;;;5.70;2.73;;;-1.70;99.90;;;;;;5074030;28;20032;-88
2021/01/19 08:36:33;;;;;;;4.23;2.80;;;-1.60;99.90;;;;;;5073862;28;20039;-88
2021/01/19 08:39:00;;;;;;;3.60;2.80;;;-1.50;99.90;;;;;;5072530;28;20099;-88
2021/01/19 08:41:26;;;;;;;4.70;3.27;;;-1.50;99.90;;;;;;5072385;28;20058;-88
2021/01/19 08:43:56;;;;;;;5.10;3.07;;;-1.40;99.90;;;;;;5073908;28;20032;-88
2021/01/19 08:46:23;;;;;;;6.50;3.50;;;-1.40;99.90;;;;;;5073667;28;20055;-88
2021/01/19 08:48:52;;;;;;;4.93;3.10;;;-1.40;99.90;;;;;;5073797;28;20016;-88
2021/01/19 08:51:25;;;;;;;5.67;3.73;;;-1.40;99.90;;;;;;5073648;28;20020;-88
2021/01/19 08:53:53;;;;;;;5.97;3.63;;;-1.40;99.90;;;;;;5073526;28;20024;-88
2021/01/19 08:56:20;;;;;;;4.53;3.00;;;-1.40;99.90;;;;;;5073669;28;20031;-88
2021/01/19 08:58:46;;;;;;;4.83;3.50;;;-1.40;99.90;;;;;;5072267;28;20113;-88
2021/01/19 09:01:13;;;;;;;5.17;3.40;;;-1.40;99.90;;;;;;5073451;28;20024;-88
2021/01/19 09:03:38;;;;;;;7.50;3.70;;;-1.40;99.90;;;;;;5072231;28;20443;-88
2021/01/19 09:06:13;;;;;;;5.33;3.50;;;-1.30;99.90;;;;;;5073151;28;20029;-88
2021/01/19 09:08:41;;;;;;;6.00;3.25;;;-1.30;99.90;;;;;;5073423;28;20043;-88
2021/01/19 09:11:09;;;;;;;5.67;3.27;;;-1.20;99.90;;;;;;5071976;28;20029;-88
2021/01/19 09:13:41;;;;;;;4.40;2.97;;;-1.20;99.90;;;;;;5072215;28;20101;-88
2021/01/19 09:16:07;;;;;;;5.50;3.23;;;-1.10;99.90;;;;;;5073425;28;20082;-90
2021/01/19 09:18:33;;;;;;;5.47;3.00;;;-1.10;99.90;;;;;;5072318;28;20032;-90
2021/01/19 09:21:08;;;;;;;5.13;3.00;;;-1.10;99.90;;;;;;5073879;28;20534;-90
2021/01/19 09:23:35;;;;;;;5.00;3.30;;;-1.00;99.90;;;;;;5073421;28;20459;-90
2021/01/19 09:26:07;;;;;;;4.90;2.87;;;-1.00;99.90;;;;;;5072177;28;20030;-91
2021/01/19 09:28:34;;;;;;;4.37;3.13;;;-0.90;99.90;;;;;;5072270;28;20017;-90
2021/01/19 09:31:21;;;;;;;3.60;2.70;;;-0.80;99.90;;;;;;5072151;28;20424;-90
2021/01/19 09:33:49;;;;;;;3.77;2.60;;;-0.70;99.90;;;;;;5073465;28;20070;-90
2021/01/19 09:36:15;;;;;;;3.73;2.47;;;-0.70;99.90;;;;;;5072055;28;20067;-91
2021/01/19 09:38:43;;;;;;;10.20;2.80;;;-0.60;99.90;;;;;;5072008;28;20073;-91
2021/01/19 09:41:12;;;;;;;5.20;2.70;;;-0.50;99.90;;;;;;5073347;28;20021;-91
2021/01/19 09:43:39;;;;;;;2.90;2.40;;;-0.50;99.90;;;;;;5073925;28;20035;-91
2021/01/19 09:46:08;;;;;;;5.33;3.10;;;-0.60;99.90;;;;;;5091434;28;20032;-90
2021/01/19 09:48:35;;;;;;;4.00;2.43;;;-0.40;99.90;;;;;;5094321;28;20015;-91
2021/01/19 09:51:06;;;;;;;3.57;2.30;;;-0.20;99.90;;;;;;5096057;28;20090;-91
2021/01/19 09:53:33;;;;;;;4.13;2.33;;;-0.20;99.90;;;;;;5075794;28;20457;-91
2021/01/19 09:56:00;;;;;;;2.90;2.20;;;-0.10;99.90;;;;;;5074464;28;20036;-91
2021/01/19 09:58:27;;;;;;;3.13;2.43;;;-0.10;99.90;;;;;;5075745;28;20044;-91
2021/01/19 10:00:55;;;;;;;2.73;1.97;;;0.00;99.90;;;;;;5072141;28;20496;-91
2021/01/19 10:03:26;;;;;;;3.43;2.37;;;0.00;99.90;;;;;;5073189;28;20401;-90
2021/01/19 10:06:03;;;;;;;3.57;2.20;;;0.00;99.90;;;;;;5072109;28;20114;-91
2021/01/19 10:08:28;;;;;;;3.67;2.53;;;0.00;99.90;;;;;;5073282;28;20051;-91
2021/01/19 10:10:54;;;;;;;4.47;2.70;;;0.10;99.90;;;;;;5073070;28;20473;-91
2021/01/19 10:13:25;;;;;;;4.23;2.37;;;0.20;99.90;;;;;;5071615;28;20142;-91
2021/01/19 10:16:08;;;;;;;6.10;2.53;;;0.30;99.90;;;;;;5072976;28;20024;-91
2021/01/19 10:18:34;;;;;;;4.93;2.70;;;0.40;99.90;;;;;;5071838;28;20469;-91
2021/01/19 10:21:00;;;;;;;4.37;2.50;;;0.40;99.90;;;;;;5072968;28;20020;-91
2021/01/19 10:23:29;;;;;;;3.43;2.30;;;0.60;99.90;;;;;;5072942;28;20025;-92
2021/01/19 10:26:06;;;;;;;5.23;2.53;;;0.60;99.90;;;;;;5076832;28;20020;-92
2021/01/19 10:28:44;;;;;;;4.30;2.60;;;0.80;99.90;;;;;;5075564;28;20517;-91
2021/01/19 10:31:28;;;;;;;8.13;2.60;;;0.90;99.90;;;;;;5077168;28;20023;-91
2021/01/19 10:34:02;;;;;;;4.40;2.10;;;1.00;99.90;;;;;;5081097;28;20125;-91
2021/01/19 10:36:37;;;;;;;5.07;2.40;;;0.90;99.90;;;;;;5083276;28;20032;-91
2021/01/19 10:39:12;;;;;;;4.50;2.60;;;1.10;99.90;;;;;;5082149;28;20031;-92
2021/01/19 10:41:41;;;;;;;3.72;2.22;;;1.20;99.90;;;;;;5083429;28;20032;-91
2021/01/19 10:44:11;;;;;;;4.77;2.17;;;1.50;99.90;;;;;;5079706;28;20120;-91
2021/01/19 10:46:36;;;;;;;5.10;2.13;;;1.70;99.90;;;;;;5077615;28;20025;-92
2021/01/19 10:49:07;;;;;;;4.63;2.20;;;1.80;99.90;;;;;;5078415;28;20370;-91
2021/01/19 10:51:33;;;;;;;4.83;2.40;;;2.00;99.90;;;;;;5077032;28;20099;-91
2021/01/19 10:54:19;;;;;;;5.27;2.37;;;2.20;99.90;;;;;;5076210;28;20031;-91
2021/01/19 10:56:46;;;;;;;6.03;2.53;;;2.40;99.90;;;;;;5074662;28;20159;-91
2021/01/19 10:59:11;;;;;;;5.73;2.47;;;2.60;99.90;;;;;;5076066;28;20062;-90
2021/01/19 11:01:38;;;;;;;4.33;2.73;;;2.80;99.90;;;;;;5074947;28;20029;-92
2021/01/19 11:04:05;;;;;;;6.67;2.40;;;3.10;99.90;;;;;;5078175;28;20163;-91
2021/01/19 11:06:32;;;;;;;5.33;2.23;;;3.20;99.90;;;;;;5083286;28;20084;-92
2021/01/19 11:08:58;;;;;;;3.57;2.33;;;3.40;99.90;;;;;;5095274;28;20024;-91
2021/01/19 11:11:24;;;;;;;2.57;1.87;;;3.50;99.90;;;;;;5076084;28;20349;-93
2021/01/19 11:13:49;;;;;;;5.33;2.03;;;3.40;99.90;;;;;;5076857;28;20443;-92
2021/01/19 11:16:15;;;;;;;6.60;1.93;;;3.30;99.90;;;;;;5077131;28;20024;-91
2021/01/19 11:18:41;;;;;;;3.63;1.93;;;3.30;99.90;;;;;;5074865;28;20107;-91
2021/01/19 11:21:06;;;;;;;2.67;1.67;;;3.30;99.90;;;;;;5075533;28;20100;-91
2021/01/19 11:23:32;;;;;;;2.30;1.80;;;3.30;99.90;;;;;;5073795;28;20025;-90
2021/01/19 11:25:58;;;;;;;2.17;1.60;;;3.40;99.90;;;;;;5075200;28;20029;-90
2021/01/19 11:28:24;;;;;;;2.67;1.60;;;3.30;99.90;;;;;;5075050;28;20114;-90
2021/01/19 11:30:51;;;;;;;3.47;2.10;;;3.30;99.90;;;;;;5073845;28;20016;-89
2021/01/19 11:33:17;;;;;;;3.67;2.57;;;3.30;99.90;;;;;;5075351;28;20025;-90
2021/01/19 11:35:42;;;;;;;2.57;1.90;;;3.20;99.90;;;;;;5074414;28;20021;-90
2021/01/19 11:38:08;;;;;;;4.50;2.20;;;3.20;99.90;;;;;;5073640;28;20477;-89
2021/01/19 11:40:34;;;;;;;2.93;1.70;;;3.20;99.90;;;;;;5075224;28;20070;-90
2021/01/19 11:43:00;;;;;;;2.33;1.70;;;3.30;99.90;;;;;;5074874;28;20029;-90
2021/01/19 11:45:27;;;;;;;5.97;2.60;;;3.30;99.90;;;;;;5073354;28;20020;-91
2021/01/19 11:47:53;;;;;;;3.80;2.40;;;3.40;99.90;;;;;;5073643;28;20024;-90
2021/01/19 11:50:19;;;;;;;5.37;2.80;;;3.40;99.90;;;;;;5073385;28;20020;-90
2021/01/19 11:52:44;;;;;;;7.33;3.10;;;3.50;99.90;;;;;;5075037;28;20074;-89
2021/01/19 11:55:11;;;;;;;5.83;2.57;;;3.60;99.90;;;;;;5074647;28;20035;-89
2021/01/19 11:57:38;;;;;;;4.33;2.27;;;3.70;99.90;;;;;;5074720;28;20044;-89
2021/01/19 12:00:09;;;;;;;4.23;2.10;;;3.70;99.90;;;;;;5073006;28;20027;-74
2021/01/19 12:02:34;;;;;;;3.43;1.93;;;3.80;99.90;;;;;;5073045;28;20374;-74
2021/01/19 12:05:00;;;;;;;4.37;2.03;;;3.80;99.90;;;;;;5072751;28;20028;-75
2021/01/19 12:07:26;;;;;;;4.17;2.03;;;3.80;99.90;;;;;;5074002;28;20138;-89
2021/01/19 12:09:52;;;;;;;8.07;2.30;;;3.80;99.90;;;;;;5074576;28;20025;-89
2021/01/19 12:12:17;;;;;;;5.20;1.80;;;3.90;99.90;;;;;;5074328;28;20021;-89
2021/01/19 12:14:43;;;;;;;3.37;1.93;;;4.00;99.90;;;;;;5074652;28;20109;-89
2021/01/19 12:17:08;;;;;;;2.20;1.50;;;3.90;99.90;;;;;;5074371;28;20105;-89
2021/01/19 12:19:34;;;;;;;2.33;1.43;;;4.10;99.90;;;;;;5074293;28;20036;-89
2021/01/19 12:21:59;;;;;;;3.43;1.50;;;4.10;99.90;;;;;;5074114;28;20028;-89
2021/01/19 12:24:25;;;;;;;2.83;1.60;;;4.00;99.90;;;;;;5072786;28;20052;-89
2021/01/19 12:26:56;;;;;;;2.80;1.53;;;4.00;99.90;;;;;;5073976;28;20465;-89
2021/01/19 12:29:23;;;;;;;2.60;1.60;;;4.10;99.90;;;;;;5073672;28;20023;-89
2021/01/19 12:31:49;;;;;;;3.90;1.70;;;4.00;99.90;;;;;;5070869;28;20119;-88
2021/01/19 12:34:19;;;;;;;3.30;1.50;;;3.90;99.90;;;;;;5073474;28;20032;-89
2021/01/19 12:36:48;;;;;;;2.60;1.70;;;4.00;99.90;;;;;;5073934;28;20029;-89
2021/01/19 12:39:14;;;;;;;5.13;2.00;;;4.00;99.90;;;;;;5074262;28;20025;-89
2021/01/19 12:41:39;;;;;;;3.37;1.90;;;4.00;99.90;;;;;;5073729;28;20025;-89
2021/01/19 12:44:05;;;;;;;5.23;1.90;;;4.00;99.90;;;;;;5073635;28;20108;-89
2021/01/19 12:46:31;;;;;;;4.73;2.13;;;3.90;99.90;;;;;;5073874;28;20024;-89
2021/01/19 12:48:57;;;;;;;3.33;1.80;;;4.00;99.90;;;;;;5072907;28;20032;-89
2021/01/19 12:51:23;;;;;;;3.10;1.90;;;4.00;99.90;;;;;;5073661;28;20017;-89
2021/01/19 12:53:49;;;;;;;2.30;1.63;;;4.00;99.90;;;;;;5073620;28;20020;-89
2021/01/19 12:56:16;;;;;;;3.53;2.00;;;4.00;99.90;;;;;;5072502;28;20029;-89
2021/01/19 12:58:43;;;;;;;4.83;1.70;;;4.00;99.90;;;;;;5053422;28;20086;-89